createdAt,value
2022-08-22T00:00:22.244Z,101160.63
2022-08-22T00:02:49.265Z,101123.09
2022-08-22T00:03:04.341Z,101140.25
2022-08-22T00:03:18.727Z,101169.78
2022-08-22T00:06:10.619Z,101165.91
2022-08-22T00:09:04.346Z,101172.59
2022-08-22T00:11:49.942Z,101162.00
2022-08-22T00:14:22.617Z,101172.47
2022-08-22T00:17:10.294Z,101165.78
2022-08-22T00:20:01.275Z,101165.03
2022-08-22T00:22:42.585Z,101167.59
2022-08-22T00:25:29.819Z,101170.72
2022-08-22T00:28:17.648Z,101165.97
2022-08-22T00:30:56.168Z,101170.94
2022-08-22T00:33:32.449Z,101167.78
2022-08-22T00:36:16.634Z,101173.19
2022-08-22T00:38:53.083Z,101172.25
2022-08-22T00:41:30.125Z,101173.09
2022-08-22T00:44:17.513Z,101162.34
2022-08-22T00:47:12.174Z,101167.63
2022-08-22T00:49:57.499Z,101156.94
2022-08-22T00:52:55.047Z,101160.91
2022-08-22T00:55:49.936Z,101161.69
2022-08-22T00:58:16.701Z,101163.59
2022-08-22T01:00:51.845Z,101162.03
2022-08-22T01:03:38.278Z,101164.56
2022-08-22T01:06:23.488Z,101169.22
2022-08-22T01:09:01.045Z,101163.63
2022-08-22T01:11:52.701Z,101161.69
2022-08-22T01:14:35.327Z,101157.94
2022-08-22T01:17:22.591Z,101162.16
2022-08-22T01:20:13.749Z,101160.53
2022-08-22T01:22:50.172Z,101154.00
2022-08-22T01:25:30.969Z,101156.44
2022-08-22T01:28:31.659Z,101165.22
2022-08-22T01:31:17.403Z,101164.25
2022-08-22T01:33:56.539Z,101164.25
2022-08-22T01:37:27.000Z,101164.09
2022-08-22T01:40:30.957Z,101153.22
2022-08-22T01:43:51.214Z,101157.69
2022-08-22T01:46:34.080Z,101156.69
2022-08-22T01:49:20.455Z,101156.78
2022-08-22T01:51:58.778Z,101165.13
2022-08-22T01:54:47.844Z,101161.59
2022-08-22T01:57:16.416Z,101172.28
2022-08-22T01:59:48.367Z,101164.44
2022-08-22T02:02:36.405Z,101164.81
2022-08-22T02:05:09.215Z,101162.38
2022-08-22T02:07:57.513Z,101163.97
2022-08-22T02:11:03.558Z,101167.22
2022-08-22T02:13:40.983Z,101161.50
2022-08-22T02:16:31.059Z,101165.38
2022-08-22T02:19:23.506Z,101165.63
2022-08-22T02:22:34.618Z,101156.53
2022-08-22T02:25:09.114Z,101161.19
2022-08-22T02:27:47.224Z,101157.56
2022-08-22T02:30:17.408Z,101166.22
2022-08-22T02:33:09.734Z,101168.44
2022-08-22T02:36:00.429Z,101161.59
2022-08-22T02:38:38.925Z,101168.16
2022-08-22T02:41:18.823Z,101159.06
2022-08-22T02:43:53.960Z,101159.06
2022-08-22T02:46:39.033Z,101168.50
2022-08-22T02:49:47.113Z,101164.44
2022-08-22T02:52:29.687Z,101164.66
2022-08-22T02:55:14.637Z,101165.34
2022-08-22T02:58:02.837Z,101168.09
2022-08-22T03:00:42.954Z,101159.88
2022-08-22T03:03:22.455Z,101160.09
2022-08-22T03:06:01.735Z,101152.31
2022-08-22T03:08:34.371Z,101155.63
2022-08-22T03:11:27.547Z,101153.72
2022-08-22T03:14:01.131Z,101151.75
2022-08-22T03:16:36.796Z,101151.13
2022-08-22T03:19:16.174Z,101149.03
2022-08-22T03:22:06.443Z,101151.50
2022-08-22T03:25:01.277Z,101150.69
2022-08-22T03:27:52.616Z,101158.38
2022-08-22T03:30:28.403Z,101152.38
2022-08-22T03:33:17.535Z,101150.81
2022-08-22T03:35:46.829Z,101143.19
2022-08-22T03:38:34.379Z,101131.09
2022-08-22T03:41:09.919Z,101139.28
2022-08-22T03:44:04.326Z,101144.25
2022-08-22T03:46:34.249Z,101142.38
2022-08-22T03:49:22.140Z,101142.38
2022-08-22T03:52:09.726Z,101143.25
2022-08-22T03:55:06.354Z,101139.22
2022-08-22T03:58:01.881Z,101145.28
2022-08-22T04:00:42.879Z,101146.63
2022-08-22T04:03:32.973Z,101152.31
2022-08-22T04:06:33.583Z,101149.28
2022-08-22T04:09:27.393Z,101154.53
2022-08-22T04:12:35.672Z,101152.97
2022-08-22T04:15:28.320Z,101162.28
2022-08-22T04:18:19.806Z,101164.78
2022-08-22T04:21:11.788Z,101172.41
2022-08-22T04:24:10.305Z,101176.75
2022-08-22T04:26:48.934Z,101172.88
2022-08-22T04:29:28.591Z,101176.84
2022-08-22T04:32:14.830Z,101177.72
2022-08-22T04:35:31.429Z,101180.16
2022-08-22T04:38:05.321Z,101182.34
2022-08-22T04:40:55.208Z,101192.13
2022-08-22T04:43:32.875Z,101190.13
2022-08-22T04:46:17.741Z,101189.63
2022-08-22T04:49:32.451Z,101180.13
2022-08-22T04:52:18.828Z,101186.38
2022-08-22T04:55:06.557Z,101194.31
2022-08-22T04:58:15.966Z,101192.69
2022-08-22T05:00:57.885Z,101189.97
2022-08-22T05:03:30.222Z,101190.72
2022-08-22T05:06:02.023Z,101198.88
2022-08-22T05:08:34.686Z,101189.84
2022-08-22T05:11:06.033Z,101189.81
2022-08-22T05:13:47.161Z,101187.16
2022-08-22T05:16:19.024Z,101196.41
2022-08-22T05:18:50.108Z,101194.97
2022-08-22T05:21:23.136Z,101200.63
2022-08-22T05:24:23.059Z,101199.16
2022-08-22T05:26:59.800Z,101200.28
2022-08-22T05:29:32.604Z,101198.00
2022-08-22T05:32:06.385Z,101203.38
2022-08-22T05:34:43.509Z,101200.63
2022-08-22T05:37:17.735Z,101198.63
2022-08-22T05:39:48.938Z,101200.16
2022-08-22T05:42:37.570Z,101197.88
2022-08-22T05:45:12.223Z,101200.34
2022-08-22T05:47:47.755Z,101202.28
2022-08-22T05:50:23.853Z,101198.75
2022-08-22T05:53:26.076Z,101194.50
2022-08-22T05:55:58.030Z,101191.34
2022-08-22T05:58:41.438Z,101194.22
2022-08-22T06:01:31.817Z,101192.81
2022-08-22T06:04:01.706Z,101196.03
2022-08-22T06:06:32.416Z,101195.88
2022-08-22T06:09:12.551Z,101192.63
2022-08-22T06:12:04.409Z,101195.81
2022-08-22T06:14:45.093Z,101190.69
2022-08-22T06:17:41.598Z,101191.88
2022-08-22T06:20:12.243Z,101197.66
2022-08-22T06:22:50.333Z,101199.00
2022-08-22T06:25:30.582Z,101208.44
2022-08-22T06:28:04.392Z,101208.53
2022-08-22T06:30:32.983Z,101210.03
2022-08-22T06:33:12.638Z,101214.94
2022-08-22T06:36:07.640Z,101211.69
2022-08-22T06:39:09.873Z,101209.31
2022-08-22T06:41:42.518Z,101219.19
2022-08-22T06:44:17.953Z,101213.63
2022-08-22T06:46:47.027Z,101223.59
2022-08-22T06:49:15.972Z,101223.22
2022-08-22T06:51:45.918Z,101236.25
2022-08-22T06:54:20.081Z,101226.41
2022-08-22T06:56:50.178Z,101222.72
2022-08-22T06:59:23.094Z,101229.97
2022-08-22T07:02:19.077Z,101228.34
2022-08-22T07:04:49.171Z,101236.06
2022-08-22T07:07:20.021Z,101231.53
2022-08-22T07:09:51.374Z,101231.88
2022-08-22T07:12:20.438Z,101235.78
2022-08-22T07:14:50.561Z,101236.47
2022-08-22T07:17:40.157Z,101228.28
2022-08-22T07:20:30.234Z,101228.97
2022-08-22T07:23:10.210Z,101238.00
2022-08-22T07:26:02.910Z,101232.09
2022-08-22T07:28:51.326Z,101232.44
2022-08-22T07:31:38.508Z,101230.22
2022-08-22T07:34:17.558Z,101232.66
2022-08-22T07:36:49.802Z,101232.81
2022-08-22T07:39:26.836Z,101237.56
2022-08-22T07:42:10.641Z,101243.00
2022-08-22T07:44:59.122Z,101244.19
2022-08-22T07:47:49.875Z,101245.03
2022-08-22T07:50:22.922Z,101241.81
2022-08-22T07:52:50.732Z,101245.19
2022-08-22T07:55:23.519Z,101243.59
2022-08-22T07:57:56.576Z,101245.41
2022-08-22T08:00:25.459Z,101246.41
2022-08-22T08:03:02.451Z,101233.28
2022-08-22T08:05:34.373Z,101239.78
2022-08-22T08:08:08.419Z,101237.66
2022-08-22T08:10:40.667Z,101242.72
2022-08-22T08:13:13.026Z,101231.16
2022-08-22T08:15:43.015Z,101239.25
2022-08-22T08:18:22.552Z,101245.53
2022-08-22T08:20:56.918Z,101227.16
2022-08-22T08:23:25.541Z,101238.34
2022-08-22T08:26:13.121Z,101229.34
2022-08-22T08:28:45.730Z,101226.84
2022-08-22T08:31:18.914Z,101230.72
2022-08-22T08:33:48.848Z,101226.91
2022-08-22T08:36:37.824Z,101232.06
2022-08-22T08:39:13.968Z,101233.34
2022-08-22T08:42:05.658Z,101233.28
2022-08-22T08:44:36.750Z,101228.72
2022-08-22T08:47:40.207Z,101230.47
2022-08-22T08:50:24.950Z,101224.09
2022-08-22T08:53:05.392Z,101217.91
2022-08-22T08:55:54.305Z,101218.91
2022-08-22T08:58:31.887Z,101205.09
2022-08-22T09:01:33.081Z,101200.47
2022-08-22T09:04:02.747Z,101201.03
2022-08-22T09:06:52.730Z,101202.84
2022-08-22T09:10:00.542Z,101200.41
2022-08-22T09:13:11.292Z,101201.75
2022-08-22T09:15:42.882Z,101198.47
2022-08-22T09:18:37.434Z,101201.75
2022-08-22T09:21:27.601Z,101192.13
2022-08-22T09:24:23.899Z,101191.91
2022-08-22T09:26:57.417Z,101196.13
2022-08-22T09:29:54.941Z,101187.06
2022-08-22T09:32:57.109Z,101186.66
2022-08-22T09:35:59.067Z,101186.72
2022-08-22T09:38:56.863Z,101183.75
2022-08-22T09:41:40.105Z,101186.59
2022-08-22T09:44:30.000Z,101185.81
2022-08-22T09:47:24.562Z,101171.91
2022-08-22T09:50:00.619Z,101165.97
2022-08-22T09:53:09.066Z,101162.16
2022-08-22T09:56:00.204Z,101159.63
2022-08-22T09:59:07.477Z,101171.69
2022-08-22T10:02:03.101Z,101159.69
2022-08-22T10:04:35.489Z,101163.03
2022-08-22T10:07:17.678Z,101157.34
2022-08-22T10:10:06.140Z,101146.97
2022-08-22T10:13:27.808Z,101156.53
2022-08-22T10:16:11.086Z,101150.47
2022-08-22T10:18:52.707Z,101147.41
2022-08-22T10:21:37.490Z,101143.16
2022-08-22T10:24:30.127Z,101146.97
2022-08-22T10:27:07.838Z,101134.19
2022-08-22T10:30:01.994Z,101136.41
2022-08-22T10:32:59.222Z,101136.72
2022-08-22T10:35:39.540Z,101129.53
2022-08-22T10:38:12.773Z,101127.22
2022-08-22T10:40:48.128Z,101129.38
2022-08-22T10:43:33.178Z,101134.44
2022-08-22T10:46:13.862Z,101124.03
2022-08-22T10:48:47.683Z,101128.41
2022-08-22T10:51:20.297Z,101125.63
2022-08-22T10:54:00.271Z,101130.63
2022-08-22T10:57:21.551Z,101125.66
2022-08-22T11:00:01.087Z,101119.09
2022-08-22T11:02:45.694Z,101130.00
2022-08-22T11:05:28.080Z,101119.38
2022-08-22T11:08:19.105Z,101122.56
2022-08-22T11:11:07.065Z,101128.41
2022-08-22T11:13:58.866Z,101119.75
2022-08-22T11:16:58.960Z,101120.16
2022-08-22T11:19:42.597Z,101113.31
2022-08-22T11:22:29.180Z,101122.25
2022-08-22T11:25:04.363Z,101113.91
2022-08-22T11:27:44.467Z,101113.19
2022-08-22T11:30:23.913Z,101109.09
2022-08-22T11:33:02.181Z,101099.03
2022-08-22T11:35:37.208Z,101102.69
2022-08-22T11:38:13.954Z,101099.75
2022-08-22T11:41:17.797Z,101092.94
2022-08-22T11:43:54.271Z,101101.56
2022-08-22T11:46:31.645Z,101100.56
2022-08-22T11:48:58.158Z,101094.47
2022-08-22T11:52:03.177Z,101093.50
2022-08-22T11:54:57.692Z,101097.25
2022-08-22T11:57:35.353Z,101102.91
2022-08-22T12:00:02.002Z,101094.44
2022-08-22T12:02:47.714Z,101093.59
2022-08-22T12:05:33.167Z,101096.94
2022-08-22T12:08:21.737Z,101095.16
2022-08-22T12:11:03.428Z,101090.63
2022-08-22T12:13:51.803Z,101086.44
2022-08-22T12:17:11.425Z,101090.22
2022-08-22T12:20:18.898Z,101102.09
2022-08-22T12:23:04.640Z,101091.44
2022-08-22T12:26:11.080Z,101084.78
2022-08-22T12:29:15.513Z,101077.44
2022-08-22T12:32:45.842Z,101073.97
2022-08-22T12:35:59.714Z,101067.19
2022-08-22T12:39:03.269Z,101070.16
2022-08-22T12:41:46.638Z,101058.41
2022-08-22T12:44:31.895Z,101053.50
2022-08-22T12:47:37.561Z,101052.13
2022-08-22T12:50:35.294Z,101051.28
2022-08-22T12:53:33.339Z,101049.41
2022-08-22T12:56:20.343Z,101043.50
2022-08-22T12:58:54.595Z,101047.25
2022-08-22T13:01:34.148Z,101041.09
2022-08-22T13:04:06.586Z,101034.84
2022-08-22T13:06:35.237Z,101032.91
2022-08-22T13:09:16.239Z,101030.94
2022-08-22T13:11:45.541Z,101030.16
2022-08-22T13:14:19.624Z,101031.03
2022-08-22T13:16:54.449Z,101025.06
2022-08-22T13:19:27.386Z,101021.78
2022-08-22T13:22:06.893Z,101025.91
2022-08-22T13:24:51.711Z,101027.44
2022-08-22T13:27:36.706Z,101029.78
2022-08-22T13:30:12.386Z,101023.72
2022-08-22T13:32:51.205Z,101025.34
2022-08-22T13:35:30.850Z,101021.41
2022-08-22T13:38:12.087Z,101020.25
2022-08-22T13:40:44.175Z,101002.63
2022-08-22T13:43:13.885Z,101007.03
2022-08-22T13:45:48.490Z,101005.44
2022-08-22T13:48:16.311Z,101007.84
2022-08-22T13:51:14.536Z,101002.25
2022-08-22T13:53:56.089Z,101003.03
2022-08-22T13:56:54.835Z,101001.41
2022-08-22T13:59:50.359Z,101006.22
2022-08-22T14:02:30.937Z,100995.44
2022-08-22T14:05:17.970Z,100997.31
2022-08-22T14:07:58.256Z,101006.94
2022-08-22T14:10:34.285Z,101002.91
2022-08-22T14:13:00.860Z,101001.72
2022-08-22T14:15:45.285Z,101007.78
2022-08-22T14:18:31.952Z,100999.56
2022-08-22T14:21:29.143Z,100995.16
2022-08-22T14:24:25.724Z,100998.75
2022-08-22T14:27:06.441Z,100990.81
2022-08-22T14:29:57.051Z,100992.47
2022-08-22T14:32:25.218Z,100990.94
2022-08-22T14:35:03.024Z,100981.81
2022-08-22T14:37:35.664Z,100991.44
2022-08-22T14:40:13.376Z,100991.03
2022-08-22T14:42:52.135Z,100980.19
2022-08-22T14:45:24.921Z,100983.38
2022-08-22T14:48:29.464Z,100990.22
2022-08-22T14:50:59.232Z,100980.22
2022-08-22T14:53:28.427Z,100981.81
2022-08-22T14:56:37.923Z,100976.63
2022-08-22T14:59:09.085Z,100974.19
2022-08-22T15:01:54.155Z,100968.16
2022-08-22T15:04:27.587Z,100966.91
2022-08-22T15:06:59.048Z,100963.53
2022-08-22T15:09:53.190Z,100968.25
2022-08-22T15:12:31.125Z,100965.81
2022-08-22T15:15:04.881Z,100960.25
2022-08-22T15:17:44.820Z,100967.50
2022-08-22T15:20:38.345Z,100965.97
2022-08-22T15:23:24.575Z,100959.19
2022-08-22T15:26:00.837Z,100961.63
2022-08-22T15:28:33.838Z,100956.09
2022-08-22T15:31:19.481Z,100954.03
2022-08-22T15:33:47.354Z,100958.41
2022-08-22T15:36:20.138Z,100952.81
2022-08-22T15:38:52.764Z,100943.97
2022-08-22T15:41:22.619Z,100950.78
2022-08-22T15:43:52.845Z,100945.22
2022-08-22T15:46:20.730Z,100946.09
2022-08-22T15:49:05.651Z,100953.31
2022-08-22T15:51:41.188Z,100936.81
2022-08-22T15:54:16.167Z,100935.19
2022-08-22T15:57:09.733Z,100941.97
2022-08-22T15:59:58.703Z,100929.50
2022-08-22T16:02:39.824Z,100932.41
2022-08-22T16:05:09.019Z,100928.44
2022-08-22T16:07:35.490Z,100929.22
2022-08-22T16:10:27.201Z,100928.75
2022-08-22T16:13:26.093Z,100920.34
2022-08-22T16:15:58.619Z,100923.94
2022-08-22T16:18:35.001Z,100923.94
2022-08-22T16:21:13.313Z,100925.44
2022-08-22T16:23:49.631Z,100924.09
2022-08-22T16:26:25.481Z,100922.38
2022-08-22T16:29:12.526Z,100919.03
2022-08-22T16:31:44.136Z,100924.22
2022-08-22T16:34:23.789Z,100915.66
2022-08-22T16:37:18.129Z,100920.41
2022-08-22T16:39:52.211Z,100917.25
2022-08-22T16:42:21.782Z,100913.25
2022-08-22T16:45:06.817Z,100913.94
2022-08-22T16:47:33.364Z,100913.91
2022-08-22T16:50:16.355Z,100919.75
2022-08-22T16:53:04.854Z,100916.50
2022-08-22T16:55:31.241Z,100918.75
2022-08-22T16:58:12.395Z,100916.28
2022-08-22T17:01:08.036Z,100922.16
2022-08-22T17:04:19.546Z,100922.34
2022-08-22T17:07:18.131Z,100921.31
2022-08-22T17:10:10.263Z,100929.25
2022-08-22T17:12:50.682Z,100924.66
2022-08-22T17:15:17.964Z,100922.19
2022-08-22T17:18:11.866Z,100921.75
2022-08-22T17:20:52.341Z,100914.94
2022-08-22T17:23:21.758Z,100918.03
2022-08-22T17:26:13.195Z,100917.47
2022-08-22T17:29:08.506Z,100915.34
2022-08-22T17:32:02.241Z,100914.00
2022-08-22T17:35:06.970Z,100914.31
2022-08-22T17:38:01.243Z,100905.16
2022-08-22T17:40:52.687Z,100919.13
2022-08-22T17:43:48.965Z,100924.00
2022-08-22T17:46:27.501Z,100932.97
2022-08-22T17:49:09.061Z,100925.44
2022-08-22T17:51:59.521Z,100942.69
2022-08-22T17:54:37.566Z,100936.09
2022-08-22T17:57:08.524Z,100929.22
2022-08-22T17:59:47.121Z,100943.28
2022-08-22T18:02:28.706Z,100945.88
2022-08-22T18:05:13.639Z,100943.03
2022-08-22T18:07:46.042Z,100949.97
2022-08-22T18:10:16.433Z,100949.97
2022-08-22T18:12:47.997Z,100951.81
2022-08-22T18:15:33.832Z,100948.84
2022-08-22T18:18:12.831Z,100958.38
2022-08-22T18:21:04.372Z,100950.13
2022-08-22T18:23:42.523Z,100948.97
2022-08-22T18:26:41.801Z,100953.09
2022-08-22T18:29:24.509Z,100959.34
2022-08-22T18:32:12.764Z,100965.09
2022-08-22T18:34:48.681Z,100970.13
2022-08-22T18:37:30.779Z,100967.72
2022-08-22T18:40:03.620Z,100969.22
2022-08-22T18:43:01.261Z,100972.53
2022-08-22T18:45:46.359Z,100973.69
2022-08-22T18:48:20.379Z,100978.00
2022-08-22T18:50:47.634Z,100983.03
2022-08-22T18:53:35.665Z,100990.72
2022-08-22T18:56:14.232Z,100985.81
2022-08-22T18:58:46.099Z,100993.31
2022-08-22T19:01:31.038Z,100994.50
2022-08-22T19:05:05.235Z,100997.25
2022-08-22T19:08:03.547Z,100995.28
2022-08-22T19:10:36.591Z,100998.78
2022-08-22T19:13:40.785Z,100995.56
2022-08-22T19:16:34.907Z,101001.91
2022-08-22T19:19:23.527Z,101000.31
2022-08-22T19:22:21.700Z,100995.47
2022-08-22T19:25:16.287Z,100998.94
2022-08-22T19:28:11.701Z,100996.63
2022-08-22T19:30:48.326Z,101003.69
2022-08-22T19:33:34.197Z,101014.41
2022-08-22T19:36:12.627Z,101019.97
2022-08-22T19:38:59.842Z,101023.91
2022-08-22T19:41:44.721Z,101022.72
2022-08-22T19:44:17.956Z,101029.47
2022-08-22T19:46:58.658Z,101029.38
2022-08-22T19:49:34.830Z,101031.47
2022-08-22T19:52:11.993Z,101034.16
2022-08-22T19:54:47.731Z,101035.31
2022-08-22T19:57:32.878Z,101037.81
2022-08-22T20:00:13.390Z,101034.69
2022-08-22T20:02:55.399Z,101046.28
2022-08-22T20:05:45.397Z,101036.72
2022-08-22T20:08:42.178Z,101055.56
2022-08-22T20:11:19.931Z,101048.78
2022-08-22T20:13:46.519Z,101044.75
2022-08-22T20:16:21.244Z,101038.50
2022-08-22T20:19:06.475Z,101032.09
2022-08-22T20:21:40.343Z,101029.09
2022-08-22T20:24:11.661Z,101019.53
2022-08-22T20:26:52.135Z,101014.97
2022-08-22T20:29:31.351Z,101012.63
2022-08-22T20:32:05.255Z,101011.75
2022-08-22T20:34:36.681Z,101014.78
2022-08-22T20:37:29.008Z,101011.19
2022-08-22T20:40:56.028Z,101011.41
2022-08-22T20:43:49.857Z,101014.59
2022-08-22T20:46:43.629Z,101020.84
2022-08-22T20:49:20.490Z,101025.84
2022-08-22T20:51:54.024Z,101015.53
2022-08-22T20:54:27.668Z,101021.56
2022-08-22T20:57:01.476Z,101029.19
2022-08-22T20:59:37.575Z,101026.22
2022-08-22T21:02:24.431Z,101022.38
2022-08-22T21:04:57.782Z,101037.56
2022-08-22T21:07:29.807Z,101031.69
2022-08-22T21:10:25.752Z,101025.56
2022-08-22T21:13:07.515Z,101036.50
2022-08-22T21:15:43.734Z,101039.31
2022-08-22T21:18:13.497Z,101031.72
2022-08-22T21:20:41.230Z,101042.03
2022-08-22T21:23:14.481Z,101048.41
2022-08-22T21:26:02.819Z,101052.56
2022-08-22T21:28:41.417Z,101048.75
2022-08-22T21:31:12.175Z,101050.97
2022-08-22T21:33:41.766Z,101050.88
2022-08-22T21:36:11.008Z,101055.25
2022-08-22T21:38:38.456Z,101053.28
2022-08-22T21:41:05.984Z,101053.09
2022-08-22T21:43:38.648Z,101056.19
2022-08-22T21:46:06.864Z,101053.84
2022-08-22T21:48:33.983Z,101055.03
2022-08-22T21:51:40.013Z,101050.88
2022-08-22T21:54:40.170Z,101051.31
2022-08-22T21:57:10.046Z,101046.50
2022-08-22T21:59:50.968Z,101048.00
2022-08-22T22:02:35.297Z,101043.59
2022-08-22T22:05:14.010Z,101048.78
2022-08-22T22:07:42.680Z,101041.06
2022-08-22T22:10:12.393Z,101037.72
2022-08-22T22:12:44.831Z,101046.28
2022-08-22T22:15:14.940Z,101044.53
2022-08-22T22:17:41.605Z,101045.44
2022-08-22T22:20:09.141Z,101038.78
2022-08-22T22:22:36.926Z,101042.81
2022-08-22T22:25:38.968Z,101039.13
2022-08-22T22:27:55.414Z,101042.69
2022-08-22T22:30:25.114Z,101044.66
2022-08-22T22:32:51.649Z,101044.41
2022-08-22T22:35:21.347Z,101049.47
2022-08-22T22:37:47.810Z,101043.38
2022-08-22T22:40:14.645Z,101047.97
2022-08-22T22:42:41.253Z,101045.31
2022-08-22T22:45:08.602Z,101047.84
2022-08-22T22:47:36.435Z,101041.22
2022-08-22T22:50:04.004Z,101041.84
2022-08-22T22:52:31.485Z,101035.66
2022-08-22T22:54:58.723Z,101033.25
2022-08-22T22:57:25.837Z,101042.59
2022-08-22T22:59:52.327Z,101042.09
2022-08-22T23:02:21.961Z,101045.31
2022-08-22T23:04:53.170Z,101041.06
2022-08-22T23:07:21.458Z,101040.34
2022-08-22T23:09:47.993Z,101043.09
2022-08-22T23:12:16.388Z,101041.84
2022-08-22T23:14:43.357Z,101049.91
2022-08-22T23:17:10.276Z,101052.34
2022-08-22T23:19:38.784Z,101048.63
2022-08-22T23:22:07.209Z,101055.16
2022-08-22T23:24:35.207Z,101058.75
2022-08-22T23:27:03.056Z,101050.69
2022-08-22T23:29:30.138Z,101052.34
2022-08-22T23:32:00.953Z,101059.81
2022-08-22T23:34:32.618Z,101063.28
2022-08-22T23:37:02.611Z,101066.22
2022-08-22T23:39:34.971Z,101065.78
2022-08-22T23:42:02.772Z,101065.00
2022-08-22T23:44:33.442Z,101061.78
2022-08-22T23:47:05.842Z,101064.78
2022-08-22T23:49:34.328Z,101070.06
2022-08-22T23:52:01.686Z,101078.72
2022-08-22T23:54:35.039Z,101073.25
2022-08-22T23:57:11.483Z,101077.50
2022-08-22T23:59:43.403Z,101087.63
